Georgetown, SC

11:55 AM EDT on July 24, 2017 (GMT -0400)
Georgetown County

Weather History for KGGE - October, 2010

Change the Weather History Date:

Sunday, October 17, 2010

  Actual Average Record
Temperature  
Mean Temperature 59 °F -  
Max Temperature 77 °F 77 °F 82 °F (2011)
Min Temperature 41 °F 54 °F 41 °F (2010)
Degree Days  
Heating Degree Days 6    
Growing Degree Days 9 (Base 50)    
Moisture  
Dew Point 46 °F    
Average Humidity 73    
Maximum Humidity 100    
Minimum Humidity 32    
Precipitation  
Precipitation 0.00 in - - ()
Sea Level Pressure  
Sea Level Pressure 30.12 in    
Wind  
Wind Speed 2 mph (WSW)    
Max Wind Speed 8 mph    
Max Gust Speed -    
Visibility 10 miles    
Events      
Averages and records for this station are not official NWS values.
T = Trace of Precipitation, MM = Missing Value Source: NWS Daily Summary

Daily Weather History Graph

Daily Weather History Graph

Search for Another Location

Airport or City:

Trip Planner

Search our weather history database for the weather conditions in past years. The results will help you decide how hot, cold, wet, or windy it might be!

Date:

Astronomy

Oct. 17, 2010 Rise Set
Actual Time 7:23 AM EDT 6:41 PM EDT
Civil Twilight 6:58 AM EDT 7:06 PM EDT
Nautical Twilight 6:29 AM EDT 7:35 PM EDT
Astronomical Twilight 6:00 AM EDT 8:03 PM EDT
Moon 3:46 PM EDT (10/17) 2:28 AM EDT (10/17)
Length of Visible Light 12h 08m
Length of Day
11h 18m
Waxing Gibbous, 75% of the Moon is Illuminated
Oct 17
Waxing Gibbous
Oct 22
Full
Oct 30
Last Quarter
Nov 6
New
Nov 13
First Quarter

Hourly Weather History & Observations

Time (EDT) Temp. Windchill Dew Point Humidity Pressure Visibility Wind Dir Wind Speed Gust Speed Precip Events Conditions
12:15 AM 44.6 °F - 44.6 °F 100% 30.14 in 10.0 mi Calm Calm - N/A   Clear
12:35 AM 44.6 °F 43.1 °F 44.6 °F 100% 30.14 in 10.0 mi WSW 3.5 mph - N/A   Clear
12:55 AM 42.8 °F - 42.8 °F 100% 30.14 in 10.0 mi Calm Calm - N/A   Clear
1:15 AM 42.8 °F 41.1 °F 42.8 °F 100% 30.13 in 10.0 mi SW 3.5 mph - N/A   Clear
1:35 AM 42.8 °F - 42.8 °F 100% 30.13 in 10.0 mi Calm Calm - N/A   Clear
1:55 AM 42.8 °F - 42.8 °F 100% 30.13 in 10.0 mi Calm Calm - N/A   Clear
2:15 AM 42.8 °F - 42.8 °F 100% 30.13 in 10.0 mi Calm Calm - N/A   Clear
2:35 AM 42.8 °F - 42.8 °F 100% 30.13 in 10.0 mi Calm Calm - N/A   Clear
2:55 AM 42.8 °F - 42.8 °F 100% 30.13 in 10.0 mi Calm Calm - N/A   Clear
3:15 AM 42.8 °F - 42.8 °F 100% 30.13 in 10.0 mi Calm Calm - N/A   Clear
3:35 AM 42.8 °F - 42.8 °F 100% 30.13 in 10.0 mi Calm Calm - N/A   Clear
3:55 AM 42.8 °F - 42.8 °F 100% 30.13 in 10.0 mi Calm Calm - N/A   Clear
4:15 AM 42.8 °F - 42.8 °F 100% 30.13 in 10.0 mi Calm Calm - N/A   Clear
4:35 AM 41.0 °F - 41.0 °F 100% 30.13 in 10.0 mi Calm Calm - N/A   Clear
4:55 AM 41.0 °F - 41.0 °F 100% 30.13 in 10.0 mi Calm Calm - N/A   Clear
5:15 AM 41.0 °F - 41.0 °F 100% 30.14 in 10.0 mi Calm Calm - N/A   Clear
5:35 AM 42.8 °F - 42.8 °F 100% 30.14 in 10.0 mi Calm Calm - N/A   Clear
5:55 AM 42.8 °F - 42.8 °F 100% 30.14 in 10.0 mi Calm Calm - N/A   Clear
6:15 AM 41.0 °F - 41.0 °F 100% 30.15 in 10.0 mi Calm Calm - N/A   Clear
6:35 AM 41.0 °F - 41.0 °F 100% 30.15 in 10.0 mi Calm Calm - N/A   Clear
6:55 AM 41.0 °F - 41.0 °F 100% 30.15 in 10.0 mi Calm Calm - N/A   Clear
7:15 AM 41.0 °F 39.0 °F 41.0 °F 100% 30.16 in 10.0 mi WSW 3.5 mph - N/A   Clear
7:35 AM 41.0 °F - 41.0 °F 100% 30.16 in 10.0 mi Calm Calm - N/A   Clear
7:55 AM 42.8 °F - 42.8 °F 100% 30.17 in 10.0 mi Calm Calm - N/A   Clear
8:15 AM 46.4 °F - 46.4 °F 100% 30.17 in 10.0 mi Calm Calm - N/A   Clear
8:35 AM 50.0 °F - 50.0 °F 100% 30.17 in 10.0 mi Calm Calm - N/A   Clear
8:55 AM 53.6 °F - 53.6 °F 100% 30.18 in 10.0 mi Calm Calm - N/A   Clear
9:15 AM 57.2 °F - 55.4 °F 94% 30.18 in 10.0 mi Calm Calm - N/A   Clear
9:55 AM 60.8 °F - 51.8 °F 72% 30.18 in 10.0 mi WNW 3.5 mph - N/A   Clear
10:15 AM 62.6 °F - 50.0 °F 63% 30.18 in 10.0 mi WNW 3.5 mph - N/A   Clear
10:35 AM 66.2 °F - 50.0 °F 56% 30.17 in 10.0 mi West 4.6 mph - N/A   Clear
10:55 AM 68.0 °F - 50.0 °F 52% 30.17 in 10.0 mi West 3.5 mph - N/A   Clear
11:15 AM 69.8 °F - 50.0 °F 49% 30.17 in 10.0 mi WNW 4.6 mph - N/A   Clear
11:55 AM 71.6 °F - 50.0 °F 46% 30.16 in 10.0 mi WSW 4.6 mph - N/A   Clear
12:15 PM 71.6 °F - 46.4 °F 41% 30.16 in 10.0 mi West 5.8 mph - N/A   Clear
12:35 PM 71.6 °F - 46.4 °F 41% 30.15 in 10.0 mi WNW 4.6 mph - N/A   Clear
12:55 PM 73.4 °F - 46.4 °F 38% 30.14 in 10.0 mi West 5.8 mph - N/A   Clear
1:15 PM 73.4 °F - 46.4 °F 38% 30.13 in 10.0 mi West 5.8 mph - N/A   Clear
1:35 PM 73.4 °F - 42.8 °F 33% 30.12 in 10.0 mi SSW 6.9 mph - N/A   Clear
1:55 PM 75.2 °F - 44.6 °F 34% 30.10 in 10.0 mi WSW 5.8 mph - N/A   Clear
2:15 PM 75.2 °F - 46.4 °F 36% 30.09 in 10.0 mi WSW 3.5 mph - N/A   Clear
2:35 PM 77.0 °F - 46.4 °F 34% 30.08 in 10.0 mi SW 8.1 mph - N/A   Clear
2:55 PM 77.0 °F - 44.6 °F 32% 30.07 in 10.0 mi West 3.5 mph - N/A   Clear
3:15 PM 77.0 °F - 46.4 °F 34% 30.06 in 10.0 mi West 6.9 mph - N/A   Clear
3:35 PM 77.0 °F - 44.6 °F 32% 30.06 in 10.0 mi WSW 8.1 mph - N/A   Clear
3:55 PM 77.0 °F - 44.6 °F 32% 30.06 in 10.0 mi SW 8.1 mph - N/A   Clear
4:15 PM 77.0 °F - 44.6 °F 32% 30.06 in 10.0 mi WSW 8.1 mph - N/A   Clear
4:35 PM 75.2 °F - 44.6 °F 34% 30.05 in 10.0 mi West 6.9 mph - N/A   Clear
4:55 PM 75.2 °F - 46.4 °F 36% 30.05 in 10.0 mi West 4.6 mph - N/A   Clear
5:35 PM 71.6 °F - 50.0 °F 46% 30.05 in 10.0 mi SSW 6.9 mph - N/A   Clear
5:55 PM 69.8 °F - 50.0 °F 49% 30.05 in 10.0 mi SSW 5.8 mph - N/A   Clear
6:15 PM 68.0 °F - 50.0 °F 52% 30.05 in 10.0 mi SSW 5.8 mph - N/A   Clear
6:35 PM 62.6 °F - 50.0 °F 63% 30.05 in 10.0 mi SSW 3.5 mph - N/A   Clear
7:15 PM 59.0 °F - 51.8 °F 77% 30.06 in 10.0 mi SSW 5.8 mph - N/A   Clear
7:35 PM 57.2 °F - 50.0 °F 77% 30.06 in 10.0 mi SSW 5.8 mph - N/A   Clear
7:55 PM 55.4 °F - 50.0 °F 82% 30.07 in 10.0 mi SSW 4.6 mph - N/A   Clear
8:15 PM 57.2 °F - 50.0 °F 77% 30.07 in 10.0 mi SSW 4.6 mph - N/A   Clear
8:35 PM 57.2 °F - 50.0 °F 77% 30.07 in 10.0 mi SSW 4.6 mph - N/A   Clear
8:55 PM 55.4 °F - 51.8 °F 88% 30.07 in 10.0 mi SSW 4.6 mph - N/A   Clear
9:15 PM 57.2 °F - 51.8 °F 82% 30.07 in 10.0 mi SW 4.6 mph - N/A   Clear
9:35 PM 57.2 °F - 50.0 °F 77% 30.08 in 10.0 mi SW 4.6 mph - N/A   Clear
9:55 PM 55.4 °F - 50.0 °F 82% 30.08 in 10.0 mi SW 4.6 mph - N/A   Clear
10:15 PM 55.4 °F - 50.0 °F 82% 30.08 in 10.0 mi SW 4.6 mph - N/A   Clear
10:35 PM 55.4 °F - 50.0 °F 82% 30.08 in 10.0 mi SW 4.6 mph - N/A   Clear
10:55 PM 53.6 °F - 50.0 °F 88% 30.08 in 10.0 mi SW 5.8 mph - N/A   Clear
11:15 PM 53.6 °F - 50.0 °F 88% 30.08 in 10.0 mi SW 5.8 mph - N/A   Clear
11:35 PM 53.6 °F - 50.0 °F 88% 30.08 in 10.0 mi SW 4.6 mph - N/A   Clear
11:55 PM 53.6 °F - 51.8 °F 94% 30.08 in 10.0 mi SW 5.8 mph - N/A   Clear